Time;durP1;ratioP1;P1;durP2;ratioP2;P2;SDS_P1;SDS_P2;PMS_P1;PMS_P2;Temp;Humidity;BMP_temperature;BMP_pressure;BME280_temperature;BME280_humidity;BME280_pressure;Samples;Min_cycle;Max_cycle;Signal;HPM_P1;HPM_P2
2022/03/03 00:00:23;;;;;;;253.83;73.23;;;-0.20;99.90;;;;;;5013418;28;20081;-94
2022/03/03 00:02:49;;;;;;;251.77;71.13;;;0.30;99.90;;;;;;4997110;28;20651;-96
2022/03/03 00:05:15;;;;;;;253.57;71.73;;;-0.30;99.90;;;;;;5013459;28;20049;-93
2022/03/03 00:07:41;;;;;;;251.93;73.10;;;-0.30;99.90;;;;;;5010714;28;20060;-93
2022/03/03 00:10:08;;;;;;;247.47;70.40;;;-0.30;99.90;;;;;;5003346;28;20508;-94
2022/03/03 00:12:34;;;;;;;229.90;67.27;;;-0.40;99.90;;;;;;5019409;28;20068;-95
2022/03/03 00:15:01;;;;;;;226.50;67.70;;;-0.50;99.90;;;;;;5019470;28;20052;-96
2022/03/03 00:17:27;;;;;;;242.73;66.63;;;0.00;99.90;;;;;;5023874;28;20071;-93
2022/03/03 00:19:53;;;;;;;228.10;68.10;;;-0.70;99.90;;;;;;5023798;28;20479;-95
2022/03/03 00:22:19;;;;;;;257.47;70.70;;;-0.70;99.90;;;;;;5023899;28;20041;-95
2022/03/03 00:24:45;;;;;;;259.40;69.80;;;-0.70;99.90;;;;;;5023944;28;20139;-96
2022/03/03 00:27:11;;;;;;;231.70;66.63;;;-0.70;99.90;;;;;;5023863;28;20076;-94
2022/03/03 00:29:37;;;;;;;245.37;71.97;;;-0.80;99.90;;;;;;5023293;28;20457;-92
2022/03/03 00:32:03;;;;;;;239.87;66.73;;;-0.90;99.90;;;;;;5006713;28;20049;-94
2022/03/03 00:34:29;;;;;;;241.23;67.40;;;-0.90;99.90;;;;;;5040396;28;20074;-92
2022/03/03 00:36:54;;;;;;;231.80;67.87;;;-1.00;99.90;;;;;;5007275;28;20127;-96
2022/03/03 00:39:20;;;;;;;256.40;71.63;;;-0.90;99.90;;;;;;5023563;28;20041;-95
2022/03/03 00:41:46;;;;;;;254.20;66.67;;;-1.00;99.90;;;;;;5023706;28;20048;-96
2022/03/03 00:44:12;;;;;;;257.97;70.30;;;-1.10;99.90;;;;;;5039547;28;20074;-94
2022/03/03 00:46:39;;;;;;;277.00;72.33;;;-1.10;99.90;;;;;;5023458;28;20574;-93
2022/03/03 00:49:05;;;;;;;258.23;70.00;;;-0.70;99.90;;;;;;5040050;28;20044;-94
2022/03/03 00:51:32;;;;;;;254.97;73.43;;;-1.00;99.90;;;;;;5039472;28;20095;-94
2022/03/03 00:53:58;;;;;;;249.60;69.60;;;-1.00;99.90;;;;;;5039653;28;20200;-92
2022/03/03 00:56:24;;;;;;;253.47;69.13;;;-0.30;99.90;;;;;;5039597;28;20045;-95
2022/03/03 00:58:50;;;;;;;277.07;71.70;;;-1.10;99.90;;;;;;5022735;28;20103;-92
2022/03/03 01:01:16;;;;;;;256.20;67.97;;;-1.20;99.90;;;;;;5007103;28;20044;-92
2022/03/03 01:03:42;;;;;;;239.93;67.60;;;-1.20;99.90;;;;;;5023406;28;20402;-96
2022/03/03 01:06:10;;;;;;;242.07;65.97;;;-1.30;99.90;;;;;;5023075;28;20132;-93
2022/03/03 01:08:35;;;;;;;257.70;68.83;;;-1.40;99.90;;;;;;5035888;28;20056;-96
2022/03/03 01:11:02;;;;;;;251.60;68.17;;;-1.40;99.90;;;;;;5002783;28;20057;-95
2022/03/03 01:13:28;;;;;;;260.17;65.97;;;-1.40;99.90;;;;;;5019685;28;20112;-92
2022/03/03 01:15:54;;;;;;;218.97;64.23;;;-0.30;99.90;;;;;;5019698;28;20046;-93
2022/03/03 01:18:20;;;;;;;232.87;63.20;;;-0.70;99.90;;;;;;5019791;28;20041;-94
2022/03/03 01:20:46;;;;;;;231.17;64.63;;;-1.80;99.90;;;;;;5019256;28;20132;-94
2022/03/03 01:23:12;;;;;;;221.03;59.53;;;-1.90;99.90;;;;;;5003137;28;20515;-92
2022/03/03 01:25:38;;;;;;;237.53;60.87;;;-2.00;99.90;;;;;;5018975;28;20080;-93
2022/03/03 01:28:04;;;;;;;257.73;67.40;;;-2.20;99.90;;;;;;5002570;28;20052;-93
2022/03/03 01:30:30;;;;;;;231.77;62.13;;;-2.30;99.90;;;;;;5019646;28;20407;-92
2022/03/03 01:32:56;;;;;;;215.07;60.67;;;-2.40;99.90;;;;;;5019028;28;20381;-95
2022/03/03 01:35:22;;;;;;;195.90;56.17;;;-2.40;99.90;;;;;;5019185;28;20140;-93
2022/03/03 01:37:48;;;;;;;201.20;58.97;;;-2.60;99.90;;;;;;4986320;28;20132;-94
2022/03/03 01:40:14;;;;;;;195.97;58.20;;;-2.40;99.90;;;;;;5018587;28;20562;-94
2022/03/03 01:42:40;;;;;;;198.47;58.50;;;-2.20;99.90;;;;;;5018985;28;20045;-95
2022/03/03 01:45:07;;;;;;;198.67;57.10;;;-2.20;99.90;;;;;;5019367;28;20358;-96
2022/03/03 01:47:33;;;;;;;171.20;54.00;;;-2.30;99.90;;;;;;5018684;28;20092;-93
2022/03/03 01:49:59;;;;;;;193.07;55.80;;;-2.40;99.90;;;;;;5018659;28;20053;-96
2022/03/03 01:52:26;;;;;;;191.27;56.10;;;-2.50;99.90;;;;;;5018406;28;20061;-96
2022/03/03 01:54:52;;;;;;;190.33;56.33;;;-2.60;99.90;;;;;;5018573;28;20049;-94
2022/03/03 01:57:20;;;;;;;186.10;59.33;;;-2.60;99.90;;;;;;5018821;28;20037;-93
2022/03/03 01:59:47;;;;;;;189.07;59.20;;;-2.60;99.90;;;;;;5018656;28;20076;-94
2022/03/03 02:02:13;;;;;;;204.93;58.57;;;-2.60;99.90;;;;;;5018383;28;20045;-96
2022/03/03 02:04:40;;;;;;;190.77;58.10;;;-2.30;99.90;;;;;;5018447;28;20480;-92
2022/03/03 02:07:07;;;;;;;190.50;59.17;;;-2.20;99.90;;;;;;5017974;28;20053;-94
2022/03/03 02:09:34;;;;;;;200.40;59.63;;;-2.20;99.90;;;;;;5018230;28;20099;-93
2022/03/03 02:12:01;;;;;;;179.60;55.17;;;-1.80;99.90;;;;;;5018396;28;20099;-93
2022/03/03 02:14:27;;;;;;;185.80;58.63;;;-2.60;99.90;;;;;;5018226;28;20049;-95
2022/03/03 02:16:53;;;;;;;194.20;59.20;;;-2.70;99.90;;;;;;5017808;28;20511;-95
2022/03/03 02:19:20;;;;;;;180.57;57.10;;;-2.70;99.90;;;;;;5018073;28;20112;-95
2022/03/03 02:21:51;;;;;;;183.80;59.23;;;-2.70;99.90;;;;;;5018074;28;20049;-96
2022/03/03 02:24:18;;;;;;;195.23;58.00;;;-2.70;99.90;;;;;;5018360;28;20519;-94
2022/03/03 02:26:45;;;;;;;189.37;56.20;;;-2.70;99.90;;;;;;5018332;28;20053;-96
2022/03/03 02:29:11;;;;;;;189.67;57.90;;;-2.40;99.90;;;;;;5018030;28;20075;-92
2022/03/03 02:31:38;;;;;;;190.07;60.50;;;-2.20;99.90;;;;;;5017727;28;20085;-96
2022/03/03 02:34:03;;;;;;;182.00;58.97;;;-2.70;99.90;;;;;;5017517;28;20063;-96
2022/03/03 02:36:30;;;;;;;186.03;57.93;;;-2.70;99.90;;;;;;5017677;28;20052;-96
2022/03/03 02:38:58;;;;;;;190.47;60.50;;;-2.60;99.90;;;;;;5016841;28;20045;-95
2022/03/03 02:41:25;;;;;;;203.77;63.03;;;-2.60;99.90;;;;;;5018976;28;20049;-96
2022/03/03 02:43:51;;;;;;;181.53;56.80;;;-2.00;99.90;;;;;;5017512;28;20049;-92
2022/03/03 02:46:18;;;;;;;186.80;57.40;;;-2.70;99.90;;;;;;5017748;28;20503;-96
2022/03/03 02:48:44;;;;;;;171.23;56.37;;;-2.70;99.90;;;;;;5017517;28;20076;-95
2022/03/03 02:51:10;;;;;;;176.13;56.63;;;-2.80;99.90;;;;;;5017711;28;20562;-96
2022/03/03 02:53:36;;;;;;;181.83;55.20;;;-2.60;99.90;;;;;;5017115;28;20053;-95
2022/03/03 02:56:04;;;;;;;181.00;58.63;;;-2.90;99.90;;;;;;5017983;28;20079;-92
2022/03/03 02:58:30;;;;;;;197.27;60.53;;;-2.80;99.90;;;;;;5017906;28;20567;-92
2022/03/03 03:00:57;;;;;;;183.17;59.90;;;-2.80;99.90;;;;;;5017497;28;20077;-96
2022/03/03 03:03:22;;;;;;;200.10;61.53;;;-2.80;99.90;;;;;;5017402;28;20068;-92
2022/03/03 03:05:48;;;;;;;194.60;61.17;;;-2.70;99.90;;;;;;5017564;28;20484;-92
2022/03/03 03:08:14;;;;;;;190.57;60.80;;;-2.10;99.90;;;;;;5017175;28;20491;-92
2022/03/03 03:10:41;;;;;;;207.63;62.20;;;-2.00;99.90;;;;;;5017404;28;20056;-93
2022/03/03 03:13:11;;;;;;;192.63;62.50;;;-2.50;99.90;;;;;;5018252;28;20073;-91
2022/03/03 03:15:37;;;;;;;191.83;59.03;;;-2.30;99.90;;;;;;5017076;28;20068;-92
2022/03/03 03:18:15;;;;;;;188.80;59.47;;;-2.50;99.90;;;;;;5017418;28;20041;-92
2022/03/03 03:20:43;;;;;;;189.20;61.27;;;-1.20;99.90;;;;;;5017168;28;20049;-95
2022/03/03 03:23:16;;;;;;;192.57;58.00;;;-2.40;99.90;;;;;;5018498;28;20041;-92
2022/03/03 03:25:43;;;;;;;193.00;60.23;;;-2.30;99.90;;;;;;5002200;28;20100;-95
2022/03/03 03:28:13;;;;;;;172.47;57.10;;;-1.70;99.90;;;;;;5019029;28;20677;-91
2022/03/03 03:30:40;;;;;;;179.07;59.93;;;-2.00;99.90;;;;;;5018477;28;20046;-89
2022/03/03 03:33:06;;;;;;;197.23;62.60;;;-1.90;99.90;;;;;;5017828;28;20155;-91
2022/03/03 03:35:32;;;;;;;214.13;68.23;;;-1.20;99.90;;;;;;5017426;28;20043;-95
2022/03/03 03:37:58;;;;;;;190.87;63.70;;;-1.30;99.90;;;;;;5017896;28;20053;-90
2022/03/03 03:40:24;;;;;;;197.23;63.20;;;-1.70;99.90;;;;;;5018255;28;20084;-92
2022/03/03 03:42:50;;;;;;;220.73;69.87;;;-1.60;99.90;;;;;;5017966;28;20038;-92
2022/03/03 03:45:16;;;;;;;214.03;65.93;;;-1.60;99.90;;;;;;5034408;28;20044;-95
2022/03/03 03:47:42;;;;;;;204.27;65.97;;;-1.60;99.90;;;;;;5035289;28;20053;-92
2022/03/03 03:50:10;;;;;;;207.43;65.00;;;-1.60;99.90;;;;;;5017321;28;20046;-92
2022/03/03 03:52:37;;;;;;;205.97;66.23;;;-1.50;99.90;;;;;;4985320;28;20393;-94
2022/03/03 03:55:07;;;;;;;205.43;66.87;;;-1.40;99.90;;;;;;5017606;28;20168;-89
2022/03/03 03:57:35;;;;;;;201.93;65.60;;;-1.40;99.90;;;;;;5017701;28;20046;-95
2022/03/03 04:00:02;;;;;;;197.97;68.10;;;-1.40;99.90;;;;;;5017599;28;20512;-89
2022/03/03 04:02:28;;;;;;;180.03;63.53;;;-1.30;99.90;;;;;;5018149;28;20042;-96
2022/03/03 04:04:54;;;;;;;198.43;65.43;;;-1.30;99.90;;;;;;5018255;28;20056;-90
2022/03/03 04:07:20;;;;;;;203.37;67.57;;;-1.30;99.90;;;;;;5011685;28;20058;-92
2022/03/03 04:09:47;;;;;;;175.03;59.97;;;-1.30;99.90;;;;;;5015049;28;20061;-96
2022/03/03 04:12:12;;;;;;;192.00;66.97;;;-1.00;99.90;;;;;;4998441;28;20084;-91
2022/03/03 04:14:39;;;;;;;193.20;63.60;;;-1.30;99.90;;;;;;4998499;28;20477;-93
2022/03/03 04:17:05;;;;;;;169.87;60.57;;;-1.30;99.90;;;;;;4997715;28;20137;-92
2022/03/03 04:19:30;;;;;;;172.57;61.60;;;-1.30;99.90;;;;;;5014866;28;20077;-92
2022/03/03 04:21:56;;;;;;;191.90;63.47;;;-1.30;99.90;;;;;;4997996;28;20030;-95
2022/03/03 04:24:22;;;;;;;170.90;59.60;;;-1.30;99.90;;;;;;4998867;28;20050;-95
2022/03/03 04:26:48;;;;;;;185.37;64.23;;;-1.30;99.90;;;;;;5015393;28;20046;-95
2022/03/03 04:29:14;;;;;;;180.00;60.73;;;-1.30;99.90;;;;;;5015478;28;20041;-91
2022/03/03 04:31:39;;;;;;;173.00;57.10;;;-1.40;99.90;;;;;;4999556;28;20053;-93
2022/03/03 04:34:08;;;;;;;161.23;59.23;;;-1.40;99.90;;;;;;5014094;28;20050;-95
2022/03/03 04:36:34;;;;;;;165.03;57.30;;;-1.20;99.90;;;;;;5013946;28;20050;-92
2022/03/03 04:39:00;;;;;;;167.77;59.13;;;-1.50;99.90;;;;;;4997329;28;20129;-92
2022/03/03 04:41:26;;;;;;;168.77;58.67;;;-1.60;99.90;;;;;;5013713;28;20145;-96
2022/03/03 04:43:52;;;;;;;155.40;56.63;;;-1.60;99.90;;;;;;5014379;28;20050;-96
2022/03/03 04:46:17;;;;;;;138.97;51.87;;;-1.60;99.90;;;;;;4980863;28;20492;-95
2022/03/03 04:48:43;;;;;;;148.90;53.50;;;-1.40;99.90;;;;;;5013061;28;20038;-92
2022/03/03 04:51:09;;;;;;;140.67;53.67;;;-1.90;99.90;;;;;;5012708;28;20077;-92
2022/03/03 04:53:35;;;;;;;143.63;53.90;;;-1.90;99.90;;;;;;4996182;28;20048;-92
2022/03/03 04:56:01;;;;;;;127.40;49.47;;;-1.00;99.90;;;;;;4996363;28;20080;-92
2022/03/03 04:58:27;;;;;;;139.03;52.90;;;-2.20;99.90;;;;;;5015132;28;20129;-92
2022/03/03 05:00:52;;;;;;;135.37;50.47;;;-2.30;99.90;;;;;;4996705;28;20049;-92
2022/03/03 05:03:19;;;;;;;136.40;51.33;;;-2.40;99.90;;;;;;5016338;28;20038;-94
2022/03/03 05:05:44;;;;;;;135.87;50.43;;;-2.50;99.90;;;;;;5016531;28;20038;-94
2022/03/03 05:08:11;;;;;;;147.03;53.30;;;-2.50;99.90;;;;;;5016583;28;20060;-92
2022/03/03 05:10:36;;;;;;;144.57;52.77;;;-1.60;99.90;;;;;;5016441;28;20052;-92
2022/03/03 05:13:02;;;;;;;143.23;53.47;;;-1.90;99.90;;;;;;5000583;28;20488;-92
2022/03/03 05:15:29;;;;;;;153.43;55.40;;;-1.30;99.90;;;;;;4984206;28;20048;-96
2022/03/03 05:17:55;;;;;;;136.27;52.53;;;-2.50;99.90;;;;;;5000213;28;20112;-96
2022/03/03 05:20:21;;;;;;;142.03;52.30;;;-2.40;99.90;;;;;;5000127;28;20045;-96
2022/03/03 05:22:47;;;;;;;140.27;53.63;;;-2.50;99.90;;;;;;5000350;28;20080;-91
2022/03/03 05:25:13;;;;;;;138.43;50.23;;;-2.20;99.90;;;;;;4983848;28;20046;-93
2022/03/03 05:27:40;;;;;;;133.53;51.17;;;-2.50;99.90;;;;;;4983931;28;20042;-96
2022/03/03 05:30:07;;;;;;;129.67;48.50;;;-2.50;99.90;;;;;;4983654;28;20046;-94
2022/03/03 05:32:33;;;;;;;136.90;51.43;;;-2.60;99.90;;;;;;4999556;28;20053;-92
2022/03/03 05:34:58;;;;;;;127.97;49.67;;;-2.70;99.90;;;;;;4999464;28;20080;-93
2022/03/03 05:37:28;;;;;;;127.43;51.37;;;-2.70;99.90;;;;;;4983152;28;20053;-95
2022/03/03 05:39:54;;;;;;;130.97;49.63;;;-2.80;99.90;;;;;;4984072;28;20053;-96
2022/03/03 05:42:20;;;;;;;137.97;49.10;;;-2.90;99.90;;;;;;4999911;28;20042;-93
2022/03/03 05:44:50;;;;;;;124.73;49.33;;;-2.90;99.90;;;;;;4999645;28;20050;-91
2022/03/03 05:47:18;;;;;;;137.60;50.43;;;-2.00;99.90;;;;;;4999521;28;20052;-94
2022/03/03 05:49:45;;;;;;;135.30;53.43;;;-2.90;99.90;;;;;;4982841;28;20044;-93
2022/03/03 05:52:13;;;;;;;123.90;52.10;;;-2.80;99.90;;;;;;4999145;28;20058;-96
2022/03/03 05:54:40;;;;;;;124.63;49.00;;;-2.90;99.90;;;;;;4999342;28;20042;-92
2022/03/03 05:57:36;;;;;;;130.70;52.00;;;-2.50;99.90;;;;;;4998914;28;20076;-93
2022/03/03 06:00:15;;;;;;;130.20;50.60;;;-3.00;99.90;;;;;;4995491;28;20139;-96
2022/03/03 06:02:54;;;;;;;131.80;51.07;;;-3.00;99.90;;;;;;4999529;28;20081;-93
2022/03/03 06:05:25;;;;;;;129.70;50.53;;;-3.00;99.90;;;;;;4999236;28;20044;-92
2022/03/03 06:07:53;;;;;;;130.63;53.70;;;-2.90;99.90;;;;;;4999136;28;20064;-96
2022/03/03 06:10:25;;;;;;;131.70;51.77;;;-1.80;99.90;;;;;;4998872;28;20045;-95
2022/03/03 06:13:11;;;;;;;134.17;52.33;;;-2.90;99.90;;;;;;4997820;28;20254;-92
2022/03/03 06:15:37;;;;;;;133.03;51.70;;;-3.20;99.90;;;;;;4998855;28;20050;-96
2022/03/03 06:18:03;;;;;;;129.63;51.20;;;-2.80;99.90;;;;;;4998696;28;20038;-96
2022/03/03 06:20:31;;;;;;;135.20;52.93;;;-2.80;99.90;;;;;;4998583;28;20056;-92
2022/03/03 06:22:57;;;;;;;139.90;52.83;;;-2.80;99.90;;;;;;4998682;28;20042;-93
2022/03/03 06:25:23;;;;;;;121.00;51.10;;;-2.80;99.90;;;;;;4998537;28;20502;-96
2022/03/03 06:27:49;;;;;;;133.50;52.47;;;-2.80;99.90;;;;;;4982578;28;20046;-96
2022/03/03 06:30:15;;;;;;;131.33;52.27;;;-2.80;99.90;;;;;;4982323;28;20057;-96
2022/03/03 06:32:41;;;;;;;143.43;54.67;;;-2.70;99.90;;;;;;4982211;28;20046;-96
2022/03/03 06:35:07;;;;;;;141.93;54.73;;;-2.20;99.90;;;;;;5014865;28;20042;-93
2022/03/03 06:37:33;;;;;;;141.60;54.10;;;-2.60;99.90;;;;;;4999017;28;20042;-93
2022/03/03 06:39:59;;;;;;;148.30;55.83;;;-2.50;99.90;;;;;;4998771;28;20048;-92
2022/03/03 06:42:25;;;;;;;149.10;54.87;;;-2.50;99.90;;;;;;4982156;28;20431;-92
2022/03/03 06:44:52;;;;;;;139.17;56.80;;;-2.40;99.90;;;;;;4966402;28;20041;-92
2022/03/03 06:47:18;;;;;;;152.53;57.50;;;-2.40;99.90;;;;;;4998857;28;20045;-95
2022/03/03 06:49:44;;;;;;;150.43;55.40;;;-2.30;99.90;;;;;;4982911;28;20056;-92
2022/03/03 06:52:14;;;;;;;149.57;55.60;;;-2.30;99.90;;;;;;4982078;28;20046;-96
2022/03/03 06:54:43;;;;;;;140.43;54.63;;;-2.40;99.90;;;;;;4998666;28;20420;-96
2022/03/03 06:57:09;;;;;;;132.40;54.63;;;-2.30;99.90;;;;;;4998292;28;20046;-92
2022/03/03 06:59:38;;;;;;;139.60;54.13;;;-2.40;99.90;;;;;;4997830;28;20508;-95
2022/03/03 07:02:04;;;;;;;141.43;54.67;;;-2.20;99.90;;;;;;4998138;28;20460;-92
2022/03/03 07:04:32;;;;;;;135.23;55.47;;;-2.20;99.90;;;;;;4982145;28;20042;-92
2022/03/03 07:06:58;;;;;;;137.07;54.30;;;-2.20;99.90;;;;;;4972014;28;20065;-96
2022/03/03 07:09:24;;;;;;;131.97;54.90;;;-2.20;99.90;;;;;;5004900;28;20053;-93
2022/03/03 07:11:50;;;;;;;148.40;56.83;;;-1.70;99.90;;;;;;5020565;28;20044;-95
2022/03/03 07:14:16;;;;;;;133.53;56.23;;;-2.10;99.90;;;;;;5020682;28;20041;-92
2022/03/03 07:16:45;;;;;;;129.03;53.70;;;-2.00;99.90;;;;;;5020771;28;20041;-92
2022/03/03 07:19:26;;;;;;;138.53;53.43;;;-2.00;99.90;;;;;;5021882;28;20052;-96
2022/03/03 07:22:26;;;;;;;145.07;58.67;;;-1.90;99.90;;;;;;5021589;28;20056;-93
2022/03/03 07:24:58;;;;;;;140.23;55.33;;;-1.90;99.90;;;;;;5037152;28;20068;-96
2022/03/03 07:27:25;;;;;;;145.80;55.30;;;-1.90;99.90;;;;;;5037862;28;20052;-96
2022/03/03 07:30:06;;;;;;;132.37;54.43;;;-1.80;99.90;;;;;;5020895;28;20049;-96
2022/03/03 07:32:43;;;;;;;142.50;58.40;;;-1.80;99.90;;;;;;5020829;28;20055;-95
2022/03/03 07:35:12;;;;;;;147.73;55.80;;;-1.70;99.90;;;;;;5021300;28;20589;-93
2022/03/03 07:37:56;;;;;;;138.27;57.23;;;-1.60;99.90;;;;;;5036964;28;20048;-96
2022/03/03 07:40:23;;;;;;;143.27;57.00;;;-1.50;99.90;;;;;;5021319;28;20098;-92
2022/03/03 07:42:51;;;;;;;144.87;59.13;;;-1.50;99.90;;;;;;5039097;28;20041;-96
2022/03/03 07:45:17;;;;;;;145.70;58.40;;;-1.40;99.90;;;;;;5005451;28;20475;-96
2022/03/03 07:47:43;;;;;;;151.60;58.37;;;-1.20;99.90;;;;;;5005534;28;20037;-91
2022/03/03 07:50:09;;;;;;;158.03;61.50;;;-1.20;99.90;;;;;;5038641;28;20045;-93
2022/03/03 07:52:35;;;;;;;147.47;59.47;;;-1.10;99.90;;;;;;5005472;28;20055;-93
2022/03/03 07:55:02;;;;;;;144.77;60.47;;;-1.10;99.90;;;;;;5006242;28;20487;-96
2022/03/03 07:57:35;;;;;;;146.70;57.67;;;-0.80;99.90;;;;;;5021098;28;20041;-94
2022/03/03 08:00:06;;;;;;;147.20;56.78;;;-1.00;99.90;;;;;;5020768;28;20044;-96
2022/03/03 08:02:33;;;;;;;126.00;56.10;;;-0.90;99.90;;;;;;5020205;28;20083;-96
2022/03/03 08:05:05;;;;;;;145.40;57.90;;;-0.80;99.90;;;;;;5023033;28;20112;-96
2022/03/03 08:07:41;;;;;;;142.67;58.47;;;-0.80;99.90;;;;;;5023277;28;20167;-96
2022/03/03 08:10:08;;;;;;;143.73;57.30;;;-0.70;99.90;;;;;;5040844;28;20076;-93
2022/03/03 08:12:35;;;;;;;147.93;58.60;;;-0.60;99.90;;;;;;5020394;28;20055;-93
2022/03/03 08:15:04;;;;;;;140.47;55.33;;;-0.60;99.90;;;;;;5006404;28;20049;-96
2022/03/03 08:17:33;;;;;;;136.93;56.30;;;-0.50;99.90;;;;;;5041742;28;20113;-94
2022/03/03 08:20:02;;;;;;;146.57;56.83;;;-0.40;99.90;;;;;;5021305;28;20045;-94
2022/03/03 08:22:28;;;;;;;131.47;55.40;;;-0.30;99.90;;;;;;5021597;28;20048;-93
2022/03/03 08:24:55;;;;;;;125.37;55.07;;;-0.30;99.90;;;;;;5021017;28;20037;-93
2022/03/03 08:27:23;;;;;;;126.93;54.80;;;-0.30;99.90;;;;;;5019413;28;20052;-96
2022/03/03 08:29:51;;;;;;;125.20;54.00;;;-0.20;99.90;;;;;;5019724;28;20045;-95
2022/03/03 08:32:19;;;;;;;129.87;54.20;;;-0.20;99.90;;;;;;5003433;28;20106;-94
2022/03/03 08:35:07;;;;;;;123.87;54.53;;;-0.20;99.90;;;;;;5020199;28;20037;-94
2022/03/03 08:37:39;;;;;;;125.03;52.90;;;-0.10;99.90;;;;;;5021831;28;20045;-96
2022/03/03 08:40:07;;;;;;;119.70;51.97;;;-0.10;99.90;;;;;;5023394;28;20045;-96
2022/03/03 08:42:44;;;;;;;121.37;51.43;;;0.00;99.90;;;;;;5023626;28;20538;-96
2022/03/03 08:45:11;;;;;;;122.17;51.73;;;0.20;99.90;;;;;;5040095;28;20495;-96
2022/03/03 08:47:39;;;;;;;113.97;52.10;;;0.10;99.90;;;;;;5023939;28;20080;-94
2022/03/03 08:50:13;;;;;;;112.13;51.03;;;0.10;99.90;;;;;;5023196;28;20085;-96
2022/03/03 08:52:43;;;;;;;116.07;50.03;;;0.30;99.90;;;;;;5023225;28;20049;-93
2022/03/03 08:55:10;;;;;;;103.20;51.10;;;0.50;99.90;;;;;;5039739;28;20041;-96
2022/03/03 08:57:37;;;;;;;97.17;46.97;;;0.50;99.90;;;;;;5040267;28;20500;-93
2022/03/03 09:00:05;;;;;;;105.27;48.87;;;0.70;99.90;;;;;;5023235;28;20048;-96
2022/03/03 09:02:32;;;;;;;88.53;45.17;;;0.60;99.90;;;;;;5007126;28;20045;-93
2022/03/03 09:04:57;;;;;;;85.40;43.17;;;0.60;99.90;;;;;;5006642;28;20709;-93
2022/03/03 09:07:23;;;;;;;87.90;43.83;;;0.80;99.90;;;;;;5021979;28;20084;-92
2022/03/03 09:09:49;;;;;;;75.90;43.83;;;0.90;99.90;;;;;;5022039;28;20473;-93
2022/03/03 09:12:15;;;;;;;73.23;38.93;;;1.00;99.90;;;;;;5021478;28;20045;-96
2022/03/03 09:14:41;;;;;;;64.73;37.33;;;1.10;99.90;;;;;;5005743;28;20137;-96
2022/03/03 09:17:07;;;;;;;67.47;37.40;;;2.00;99.90;;;;;;5038995;28;20041;-96
2022/03/03 09:19:33;;;;;;;64.07;38.07;;;1.40;99.90;;;;;;5005824;28;20553;-96
2022/03/03 09:22:01;;;;;;;62.13;36.10;;;1.70;99.90;;;;;;5021516;28;20045;-93
2022/03/03 09:24:27;;;;;;;69.13;39.70;;;2.20;99.90;;;;;;5021577;28;20052;-93
2022/03/03 09:26:54;;;;;;;66.10;39.33;;;1.90;99.90;;;;;;5021617;28;20036;-96
2022/03/03 09:29:21;;;;;;;67.37;40.47;;;2.00;99.90;;;;;;5005270;28;20076;-94
2022/03/03 09:31:47;;;;;;;65.73;38.43;;;2.00;99.90;;;;;;5021416;28;20102;-95
2022/03/03 09:34:13;;;;;;;63.27;38.97;;;2.30;99.90;;;;;;5005049;28;20107;-94
2022/03/03 09:36:39;;;;;;;60.30;38.07;;;2.30;94.30;;;;;;5021544;28;20098;-96
2022/03/03 09:39:05;;;;;;;62.70;37.80;;;2.40;25.80;;;;;;5005612;28;20084;-96
2022/03/03 09:41:31;;;;;;;59.57;37.23;;;2.30;1.00;;;;;;5021544;28;20060;-93
2022/03/03 09:43:58;;;;;;;60.73;37.53;;;2.40;1.00;;;;;;5021409;28;20049;-96
2022/03/03 09:46:24;;;;;;;58.60;35.97;;;2.90;1.00;;;;;;5006251;28;20095;-96
2022/03/03 09:48:51;;;;;;;55.77;36.13;;;2.80;1.00;;;;;;5021372;28;20197;-94
2022/03/03 09:51:17;;;;;;;54.33;34.37;;;2.90;1.00;;;;;;5038378;28;20064;-96
2022/03/03 09:53:43;;;;;;;58.00;36.73;;;2.90;1.00;;;;;;5021318;28;20041;-95
2022/03/03 09:56:10;;;;;;;56.93;34.97;;;3.10;1.00;;;;;;5038084;28;20095;-96
2022/03/03 09:58:36;;;;;;;54.73;33.03;;;3.70;1.00;;;;;;5037541;28;20104;-94
2022/03/03 10:01:03;;;;;;;50.93;33.53;;;3.20;1.00;;;;;;5021719;28;20080;-95
2022/03/03 10:03:37;;;;;;;49.83;33.30;;;3.40;1.00;;;;;;5021500;28;20514;-96
2022/03/03 10:06:03;;;;;;;47.13;30.92;;;3.50;1.00;;;;;;5022224;28;20053;-96
2022/03/03 10:08:30;;;;;;;46.58;30.75;;;3.70;99.90;;;;;;4961152;28;1268611;-96
2022/03/03 10:11:01;;;;;;;45.58;29.63;;;3.70;1.00;;;;;;5006138;28;20310;-95
2022/03/03 10:13:54;;;;;;;42.40;29.42;;;4.00;1.00;;;;;;5022867;28;20402;-95
2022/03/03 10:16:28;;;;;;;39.95;27.88;;;4.30;99.90;;;;;;5021650;28;20040;-96
2022/03/03 10:19:03;;;;;;;37.35;24.98;;;4.90;99.90;;;;;;5023587;28;20049;-95
2022/03/03 10:21:45;;;;;;;34.42;24.35;;;6.20;1.00;;;;;;5024590;28;20052;-96
2022/03/03 10:24:21;;;;;;;28.38;21.48;;;7.60;72.40;;;;;;5024135;28;20496;-95
2022/03/03 10:27:00;;;;;;;28.40;19.63;;;8.50;1.00;;;;;;5022828;28;20048;-94
2022/03/03 10:29:27;;;;;;;27.00;19.63;;;9.40;99.90;;;;;;5023289;28;20045;-96
2022/03/03 10:31:57;;;;;;;24.92;18.77;;;10.10;99.90;;;;;;5023063;28;20101;-95
2022/03/03 10:34:30;;;;;;;22.70;17.25;;;10.80;99.90;;;;;;5022160;28;20037;-96
2022/03/03 10:37:04;;;;;;;24.33;18.13;;;11.30;1.00;;;;;;5039253;28;20080;-96
2022/03/03 10:39:48;;;;;;;21.90;17.00;;;11.70;1.00;;;;;;5022010;28;20056;-96
2022/03/03 10:42:19;;;;;;;21.27;15.63;;;12.30;99.90;;;;;;5022339;28;20037;-96
2022/03/03 10:45:06;;;;;;;18.40;15.13;;;12.50;99.90;;;;;;5039463;28;20053;-96
2022/03/03 10:47:35;;;;;;;19.95;15.65;;;12.60;1.00;;;;;;5009424;28;20084;-96
2022/03/03 10:50:04;;;;;;;19.88;15.63;;;12.80;99.90;;;;;;5022585;28;20403;-96
2022/03/03 10:52:35;;;;;;;21.30;15.55;;;13.10;16.70;;;;;;5021632;28;20126;-94
2022/03/03 10:55:11;;;;;;;23.58;15.02;;;13.00;1.00;;;;;;5021172;28;20041;-96
2022/03/03 10:58:08;;;;;;;21.10;15.65;;;13.10;1.00;;;;;;5021200;28;20127;-95
2022/03/03 11:00:35;;;;;;;17.20;14.15;;;13.40;1.00;;;;;;5020563;28;20411;-95
2022/03/03 11:03:04;;;;;;;17.70;14.15;;;13.50;1.00;;;;;;5005869;28;20041;-96
2022/03/03 11:05:31;;;;;;;20.38;15.43;;;13.80;1.00;;;;;;5020945;28;20045;-94
2022/03/03 11:07:58;;;;;;;18.30;14.60;;;14.10;1.00;;;;;;5020743;28;20438;-95
2022/03/03 11:10:29;;;;;;;17.45;14.32;;;14.30;1.00;;;;;;5004297;28;20045;-96
2022/03/03 11:12:58;;;;;;;24.42;16.30;;;14.60;1.00;;;;;;5021879;28;20376;-93
2022/03/03 11:15:28;;;;;;;20.90;15.00;;;14.80;1.00;;;;;;5021401;28;20081;-96
2022/03/03 11:17:55;;;;;;;17.30;14.60;;;14.70;1.00;;;;;;5004506;28;20132;-95
2022/03/03 11:20:21;;;;;;;17.92;14.32;;;14.80;1.00;;;;;;5005033;28;20123;-96
2022/03/03 11:22:52;;;;;;;20.63;14.27;;;14.80;1.00;;;;;;5020374;28;20044;-94
2022/03/03 11:25:26;;;;;;;19.00;14.43;;;14.90;1.00;;;;;;5037022;28;20071;-94
2022/03/03 11:28:05;;;;;;;21.73;15.43;;;14.70;1.00;;;;;;5023170;28;20045;-93
2022/03/03 11:30:32;;;;;;;18.23;14.80;;;14.50;1.00;;;;;;5024082;28;20048;-95
2022/03/03 11:33:22;;;;;;;20.02;15.40;;;14.20;1.00;;;;;;5020547;28;20094;-95
2022/03/03 11:35:59;;;;;;;21.30;14.77;;;14.30;1.00;;;;;;5022065;28;20048;-96
2022/03/03 11:38:44;;;;;;;17.70;13.82;;;14.20;1.00;;;;;;5020877;28;20048;-96
2022/03/03 11:41:13;;;;;;;20.73;14.40;;;14.50;1.00;;;;;;5020718;28;20037;-93
2022/03/03 11:43:49;;;;;;;19.70;15.95;;;14.60;1.00;;;;;;5023317;28;20154;-96
2022/03/03 11:46:44;;;;;;;19.17;15.57;;;14.50;1.00;;;;;;5022911;28;20054;-95
2022/03/03 11:49:21;;;;;;;19.92;14.85;;;14.50;1.00;;;;;;5020747;28;20052;-96
2022/03/03 11:52:10;;;;;;;20.45;16.20;;;14.60;1.00;;;;;;5021215;28;20119;-96
2022/03/03 11:54:42;;;;;;;20.27;16.65;;;14.80;1.00;;;;;;5017408;28;20060;-93
2022/03/03 11:57:09;;;;;;;19.48;15.57;;;14.50;1.00;;;;;;5023436;28;20041;-96
2022/03/03 11:59:41;;;;;;;21.30;16.10;;;14.40;1.00;;;;;;5025442;28;20434;-96
2022/03/03 12:02:10;;;;;;;20.42;15.75;;;14.20;1.00;;;;;;5023533;28;20048;-94
2022/03/03 12:04:37;;;;;;;20.35;16.52;;;14.20;1.00;;;;;;5005780;28;20358;-93
2022/03/03 12:07:27;;;;;;;23.67;18.50;;;14.40;1.00;;;;;;5004018;28;20047;-94
2022/03/03 12:09:56;;;;;;;22.27;17.52;;;14.60;1.00;;;;;;5040336;28;20494;-94
2022/03/03 12:12:27;;;;;;;23.00;18.40;;;14.50;1.00;;;;;;5023259;28;20060;-95
2022/03/03 12:15:00;;;;;;;23.23;17.17;;;14.40;1.00;;;;;;5037283;28;20045;-96
2022/03/03 12:17:58;;;;;;;23.10;16.80;;;14.40;1.00;;;;;;5023558;28;20045;-95
2022/03/03 12:20:24;;;;;;;21.42;17.38;;;14.50;1.00;;;;;;5021380;28;20099;-96
2022/03/03 12:23:13;;;;;;;22.73;18.98;;;14.60;1.00;;;;;;5021468;28;20041;-93
2022/03/03 12:25:50;;;;;;;21.90;16.08;;;14.50;1.00;;;;;;5022021;28;20048;-95
2022/03/03 12:28:40;;;;;;;20.70;16.55;;;14.50;1.00;;;;;;5022700;28;20049;-96
2022/03/03 12:31:21;;;;;;;21.10;15.95;;;14.60;1.00;;;;;;5025588;28;20041;-96